Laton, California
Current Conditions -  °F | °C
As of 9:53 PM on Tuesday 21 Oct 2014 (Local Time) from KHJO Reporting Station
Clear Clear  
Wind Chill: 62°   Ceiling: Unl
Heat Index: 62°   Visibility: 10mi
Dew Point: 43°   Wind: 9mph
Humidity: 50%   Direction: 320°NW
Pressure: 30.01"   Gusts: NA
Location:  36.43°N, 119.69°W
Report Text: KHJO 220453Z AUTO 32008KT 10SM CLR 17/06 A3001 RMK AO2 SLP164 T01670061
Loading
Personal Weather Stations






























Interactive Weather Map
Tropical Storm Tracking
New forecast layout! Learn more

10-Day Weather Forecast

Advertisements
Track Severe Weather on mobile